Saint Agatha, Maine
Current Conditions -  °F | °C
As of 11:19 PM on Wednesday 26 Nov 2014 (Local Time) from KFVE Reporting Station
Light Snow Light Snow  
Wind Chill: 11°   Ceiling: 1000
Heat Index: 22°   Visibility: 0.75mi
Dew Point: 20°   Wind: 10mph
Humidity: 92%   Direction: 10°N
Pressure: 29.99"   Gusts: NA
Location:  47.24°N, 68.31°W
Report Text: KFVE 270419Z AUTO 01009KT 3/4SM -SN BR VV010 M06/M07 A2999 RMK AO2 P0001 T10561067
Loading
Personal Weather Stations






























Interactive Weather Map New forecast layout! Learn more

10-Day Weather Forecast

Advertisements
Track Severe Weather on mobile